Lakehurst, New Jersey
Current Conditions -  °F | °C
As of 4:35 AM on Saturday 25 Oct 2014 (Local Time) from KMJX Reporting Station
Clear Clear  
Wind Chill: 43°   Ceiling: Unl
Heat Index: 43°   Visibility: 10mi
Dew Point: 37°   Wind: 0mph
Humidity: 81%   Direction: NA
Pressure: 29.89"   Gusts: NA
Location:  40.01°N, 74.31°W
Report Text: KMJX 250835Z AUTO 00000KT 10SM CLR 06/03 A2989 RMK AO1
Loading
Personal Weather Stations






























Interactive Weather Map
Tropical Storm Tracking
New forecast layout! Learn more

10-Day Weather Forecast

Advertisements
Track Severe Weather on mobile